createdAt,value
2019-06-20T00:00:43.119Z,0.00
2019-06-20T00:01:43.144Z,0.00
2019-06-20T00:02:43.095Z,0.00
2019-06-20T00:03:43.082Z,0.00
2019-06-20T00:04:43.088Z,0.00
2019-06-20T00:05:43.058Z,0.00
2019-06-20T00:06:43.065Z,0.00
2019-06-20T00:07:43.044Z,0.00
2019-06-20T00:08:43.031Z,0.00
2019-06-20T00:09:43.026Z,0.00
2019-06-20T00:10:43.015Z,0.00
2019-06-20T00:11:43.103Z,0.00
2019-06-20T00:12:42.992Z,0.00
2019-06-20T00:13:42.979Z,0.00
2019-06-20T00:14:42.960Z,0.00
2019-06-20T00:15:42.972Z,0.00
2019-06-20T00:16:42.964Z,0.00
2019-06-20T00:17:42.941Z,0.00
2019-06-20T00:18:42.923Z,0.00
2019-06-20T00:19:42.917Z,0.00
2019-06-20T00:20:42.899Z,0.00
2019-06-20T00:21:42.915Z,0.00
2019-06-20T00:22:42.879Z,0.00
2019-06-20T00:23:42.869Z,0.00
2019-06-20T00:24:42.863Z,0.00
2019-06-20T00:25:42.853Z,0.00
2019-06-20T00:26:42.864Z,0.00
2019-06-20T00:27:42.827Z,0.00
2019-06-20T00:28:42.818Z,0.00
2019-06-20T00:29:42.813Z,0.00
2019-06-20T00:30:42.811Z,0.00
2019-06-20T00:31:42.784Z,0.00
2019-06-20T00:32:42.786Z,0.00
2019-06-20T00:33:42.767Z,0.00
2019-06-20T00:34:42.750Z,0.00
2019-06-20T00:35:42.746Z,0.00
2019-06-20T00:36:42.745Z,0.00
2019-06-20T00:37:42.727Z,0.00
2019-06-20T00:38:42.711Z,0.00
2019-06-20T00:39:42.704Z,0.00
2019-06-20T00:40:42.698Z,0.00
2019-06-20T00:41:42.680Z,0.00
2019-06-20T00:42:42.678Z,0.00
2019-06-20T00:43:42.649Z,0.00
2019-06-20T00:44:42.645Z,0.00
2019-06-20T00:45:42.632Z,0.00
2019-06-20T00:46:42.636Z,0.00
2019-06-20T00:47:42.624Z,0.00
2019-06-20T00:48:42.604Z,0.00
2019-06-20T00:49:42.586Z,0.00
2019-06-20T00:50:42.600Z,0.00
2019-06-20T00:51:42.568Z,0.00
2019-06-20T00:52:42.586Z,0.00
2019-06-20T00:53:42.572Z,0.00
2019-06-20T00:54:42.538Z,0.00
2019-06-20T00:55:42.525Z,0.00
2019-06-20T00:56:42.539Z,0.00
2019-06-20T00:57:42.532Z,0.00
2019-06-20T00:58:42.487Z,0.00
2019-06-20T00:59:42.490Z,0.00
2019-06-20T01:00:42.507Z,0.00
2019-06-20T01:01:42.469Z,0.00
2019-06-20T01:02:42.458Z,0.00
2019-06-20T01:03:42.454Z,0.00
2019-06-20T01:04:42.432Z,0.00
2019-06-20T01:05:42.411Z,0.00
2019-06-20T01:06:42.410Z,0.00
2019-06-20T01:07:42.401Z,0.00
2019-06-20T01:08:42.475Z,0.00
2019-06-20T01:09:42.365Z,0.00
2019-06-20T01:10:42.366Z,0.00
2019-06-20T01:11:42.374Z,0.00
2019-06-20T01:12:42.343Z,0.00
2019-06-20T01:13:42.337Z,0.00
2019-06-20T01:14:42.359Z,0.00
2019-06-20T01:15:42.309Z,0.00
2019-06-20T01:16:42.301Z,0.00
2019-06-20T01:17:42.288Z,0.00
2019-06-20T01:18:42.275Z,0.00
2019-06-20T01:19:42.294Z,0.00
2019-06-20T01:20:42.280Z,0.00
2019-06-20T01:21:42.249Z,0.00
2019-06-20T01:22:42.237Z,0.00
2019-06-20T01:23:42.228Z,0.00
2019-06-20T01:24:42.211Z,0.00
2019-06-20T01:25:42.212Z,0.00
2019-06-20T01:26:42.194Z,0.00
2019-06-20T01:27:42.178Z,0.00
2019-06-20T01:28:42.164Z,0.00
2019-06-20T01:29:42.156Z,0.00
2019-06-20T01:30:42.160Z,0.00
2019-06-20T01:31:42.167Z,0.00
2019-06-20T01:32:42.118Z,0.00
2019-06-20T01:33:42.118Z,0.00
2019-06-20T01:34:42.112Z,0.00
2019-06-20T01:35:42.101Z,0.00
2019-06-20T01:36:42.087Z,0.00
2019-06-20T01:37:42.067Z,0.00
2019-06-20T01:38:42.092Z,0.00
2019-06-20T01:39:42.056Z,0.00
2019-06-20T01:40:42.063Z,0.00
2019-06-20T01:41:42.020Z,0.00
2019-06-20T01:42:42.022Z,0.00
2019-06-20T01:43:50.476Z,0.00
2019-06-20T01:44:43.000Z,0.00
2019-06-20T01:45:42.001Z,0.00
2019-06-20T01:46:42.002Z,0.00
2019-06-20T01:47:41.962Z,0.00
2019-06-20T01:48:41.953Z,0.00
2019-06-20T01:49:41.942Z,0.00
2019-06-20T01:50:41.934Z,0.00
2019-06-20T01:51:41.950Z,0.00
2019-06-20T01:52:41.902Z,0.00
2019-06-20T01:53:41.900Z,0.00
2019-06-20T01:54:41.894Z,0.00
2019-06-20T01:55:41.868Z,0.00
2019-06-20T01:56:41.876Z,0.00
2019-06-20T01:57:41.857Z,0.00
2019-06-20T01:58:41.847Z,4.00
2019-06-20T01:59:41.858Z,4.00
2019-06-20T02:00:41.826Z,4.00
2019-06-20T02:01:41.823Z,4.00
2019-06-20T02:02:41.810Z,4.00
2019-06-20T02:03:41.783Z,4.00
2019-06-20T02:04:41.776Z,4.00
2019-06-20T02:05:41.783Z,4.00
2019-06-20T02:06:41.768Z,8.00
2019-06-20T02:07:41.738Z,4.00
2019-06-20T02:08:41.726Z,4.00
2019-06-20T02:09:41.713Z,8.00
2019-06-20T02:10:41.711Z,12.00
2019-06-20T02:11:41.720Z,8.00
2019-06-20T02:12:41.686Z,12.00
2019-06-20T02:13:41.671Z,12.00
2019-06-20T02:14:41.655Z,12.00
2019-06-20T02:15:41.652Z,16.00
2019-06-20T02:16:41.652Z,20.00
2019-06-20T02:17:41.625Z,20.00
2019-06-20T02:18:41.632Z,24.00
2019-06-20T02:19:41.619Z,24.00
2019-06-20T02:20:41.606Z,24.00
2019-06-20T02:21:41.601Z,32.00
2019-06-20T02:22:41.577Z,36.00
2019-06-20T02:23:41.561Z,40.00
2019-06-20T02:24:41.573Z,40.00
2019-06-20T02:25:41.547Z,48.00
2019-06-20T02:26:41.551Z,52.00
2019-06-20T02:27:41.519Z,60.00
2019-06-20T02:28:41.526Z,64.00
2019-06-20T02:29:41.494Z,72.00
2019-06-20T02:30:41.496Z,84.00
2019-06-20T02:31:41.491Z,92.00
2019-06-20T02:32:41.467Z,104.00
2019-06-20T02:33:41.472Z,116.00
2019-06-20T02:34:41.448Z,132.00
2019-06-20T02:35:41.443Z,144.00
2019-06-20T02:36:41.418Z,160.00
2019-06-20T02:37:41.422Z,176.00
2019-06-20T02:38:41.408Z,192.00
2019-06-20T02:39:41.387Z,208.00
2019-06-20T02:40:41.385Z,224.00
2019-06-20T02:41:41.371Z,244.00
2019-06-20T02:42:41.359Z,260.00
2019-06-20T02:43:41.368Z,284.00
2019-06-20T02:44:41.344Z,304.00
2019-06-20T02:45:41.323Z,324.00
2019-06-20T02:46:41.323Z,348.00
2019-06-20T02:47:41.309Z,368.00
2019-06-20T02:48:41.301Z,392.00
2019-06-20T02:49:41.295Z,412.00
2019-06-20T02:50:41.267Z,440.00
2019-06-20T02:51:41.266Z,464.00
2019-06-20T02:52:41.250Z,492.00
2019-06-20T02:53:41.254Z,516.00
2019-06-20T02:54:41.246Z,544.00
2019-06-20T02:55:41.216Z,572.00
2019-06-20T02:56:41.209Z,600.00
2019-06-20T02:57:41.193Z,632.00
2019-06-20T02:58:41.200Z,664.00
2019-06-20T02:59:41.167Z,696.00
2019-06-20T03:00:41.162Z,728.00
2019-06-20T03:01:41.165Z,760.00
2019-06-20T03:02:41.163Z,796.00
2019-06-20T03:03:41.126Z,832.00
2019-06-20T03:04:41.133Z,864.00
2019-06-20T03:05:41.104Z,904.00
2019-06-20T03:06:41.101Z,948.00
2019-06-20T03:07:41.087Z,984.00
2019-06-20T03:08:41.085Z,1020.00
2019-06-20T03:09:41.069Z,1052.00
2019-06-20T03:10:41.105Z,1084.00
2019-06-20T03:11:41.039Z,1112.00
2019-06-20T03:12:41.035Z,1148.00
2019-06-20T03:13:41.061Z,1176.00
2019-06-20T03:14:45.439Z,1212.00
2019-06-20T03:15:41.007Z,1268.00
2019-06-20T03:16:40.991Z,1356.00
2019-06-20T03:17:40.985Z,1460.00
2019-06-20T03:18:40.959Z,1560.00
2019-06-20T03:19:40.964Z,1620.00
2019-06-20T03:20:40.948Z,1652.00
2019-06-20T03:21:40.927Z,1668.00
2019-06-20T03:22:40.920Z,1656.00
2019-06-20T03:23:40.922Z,1640.00
2019-06-20T03:24:40.897Z,1624.00
2019-06-20T03:25:40.891Z,1632.00
2019-06-20T03:26:40.879Z,1636.00
2019-06-20T03:27:40.886Z,1648.00
2019-06-20T03:28:40.857Z,1660.00
2019-06-20T03:29:40.858Z,1672.00
2019-06-20T03:30:40.826Z,1688.00
2019-06-20T03:31:40.826Z,1700.00
2019-06-20T03:32:40.824Z,1720.00
2019-06-20T03:33:40.801Z,1744.00
2019-06-20T03:34:40.800Z,1780.00
2019-06-20T03:35:40.773Z,1816.00
2019-06-20T03:36:40.761Z,1856.00
2019-06-20T03:37:40.771Z,1900.00
2019-06-20T03:38:40.756Z,1948.00
2019-06-20T03:39:40.729Z,1996.00
2019-06-20T03:40:40.740Z,2064.00
2019-06-20T03:41:40.723Z,2132.00
2019-06-20T03:42:40.709Z,2200.00
2019-06-20T03:43:40.693Z,2264.00
2019-06-20T03:44:40.682Z,2328.00
2019-06-20T03:45:40.671Z,2388.00
2019-06-20T03:46:40.670Z,2460.00
2019-06-20T03:47:40.652Z,2548.00
2019-06-20T03:48:40.641Z,2632.00
2019-06-20T03:49:40.621Z,2720.00
2019-06-20T03:50:40.614Z,2808.00
2019-06-20T03:51:40.626Z,2896.00
2019-06-20T03:52:40.596Z,2972.00
2019-06-20T03:53:40.585Z,3060.00
2019-06-20T03:54:40.565Z,3180.00
2019-06-20T03:55:40.557Z,3272.00
2019-06-20T03:56:40.578Z,3344.00
2019-06-20T03:57:40.547Z,3416.00
2019-06-20T03:58:40.526Z,3484.00
2019-06-20T03:59:40.519Z,3548.00
2019-06-20T04:00:40.507Z,3612.00
2019-06-20T04:01:40.510Z,3668.00
2019-06-20T04:02:40.479Z,3724.00
2019-06-20T04:03:40.509Z,3776.00
2019-06-20T04:04:40.478Z,3820.00
2019-06-20T04:05:40.445Z,3860.00
2019-06-20T04:06:40.453Z,3904.00
2019-06-20T04:07:40.441Z,3944.00
2019-06-20T04:08:40.433Z,3992.00
2019-06-20T04:09:40.438Z,4056.00
2019-06-20T04:10:40.398Z,4120.00
2019-06-20T04:11:40.414Z,4180.00
2019-06-20T04:12:40.377Z,4248.00
2019-06-20T04:13:40.366Z,4308.00
2019-06-20T04:14:40.361Z,4360.00
2019-06-20T04:15:40.343Z,4412.00
2019-06-20T04:16:40.331Z,4456.00
2019-06-20T04:17:40.335Z,4500.00
2019-06-20T04:18:40.310Z,4540.00
2019-06-20T04:19:40.299Z,4580.00
2019-06-20T04:20:40.305Z,4616.00
2019-06-20T04:21:40.304Z,4652.00
2019-06-20T04:22:40.263Z,4692.00
2019-06-20T04:23:40.266Z,4732.00
2019-06-20T04:24:40.249Z,4788.00
2019-06-20T04:25:40.234Z,4840.00
2019-06-20T04:26:40.220Z,4904.00
2019-06-20T04:27:40.221Z,4972.00
2019-06-20T04:28:40.194Z,5060.00
2019-06-20T04:29:40.195Z,5140.00
2019-06-20T04:30:40.183Z,5220.00
2019-06-20T04:31:40.177Z,5300.00
2019-06-20T04:32:40.175Z,5396.00
2019-06-20T04:33:40.143Z,5484.00
2019-06-20T04:34:40.129Z,5568.00
2019-06-20T04:35:40.130Z,5656.00
2019-06-20T04:36:40.111Z,5744.00
2019-06-20T04:37:40.127Z,5836.00
2019-06-20T04:38:40.111Z,5936.00
2019-06-20T04:39:40.076Z,6044.00
2019-06-20T04:40:40.066Z,6164.00
2019-06-20T04:41:40.062Z,6300.00
2019-06-20T04:42:40.075Z,6452.00
2019-06-20T04:43:40.049Z,6616.00
2019-06-20T04:44:40.029Z,6788.00
2019-06-20T04:45:40.015Z,6964.00
2019-06-20T04:46:40.011Z,7164.00
2019-06-20T04:47:39.989Z,7420.00
2019-06-20T04:48:39.993Z,7704.00
2019-06-20T04:49:39.982Z,8084.00
2019-06-20T04:50:39.960Z,8588.00
2019-06-20T04:51:39.954Z,9360.00
2019-06-20T04:52:39.957Z,10272.00
2019-06-20T04:53:39.936Z,10916.00
2019-06-20T04:54:39.930Z,11176.00
2019-06-20T04:55:39.905Z,11236.00
2019-06-20T04:56:39.902Z,11316.00
2019-06-20T04:57:39.888Z,11280.00
2019-06-20T04:58:39.880Z,11168.00
2019-06-20T04:59:39.876Z,11044.00
2019-06-20T05:00:39.851Z,10972.00
2019-06-20T05:01:39.858Z,10984.00
2019-06-20T05:02:39.904Z,11080.00
2019-06-20T05:03:39.830Z,11224.00
2019-06-20T05:04:39.826Z,11368.00
2019-06-20T05:05:39.797Z,11536.00
2019-06-20T05:06:39.806Z,11696.00
2019-06-20T05:07:39.780Z,11868.00
2019-06-20T05:08:39.769Z,12020.00
2019-06-20T05:09:39.752Z,12156.00
2019-06-20T05:10:39.760Z,12336.00
2019-06-20T05:11:39.749Z,12552.00
2019-06-20T05:12:39.730Z,12804.00
2019-06-20T05:13:39.717Z,13064.00
2019-06-20T05:14:39.702Z,13088.00
2019-06-20T05:15:52.007Z,12968.00
2019-06-20T05:16:40.683Z,12636.00
2019-06-20T05:17:39.715Z,12384.00
2019-06-20T05:18:39.669Z,12456.00
2019-06-20T05:19:39.666Z,12568.00
2019-06-20T05:20:39.642Z,12884.00
2019-06-20T05:21:39.632Z,13380.00
2019-06-20T05:22:39.638Z,13872.00
2019-06-20T05:23:39.609Z,14200.00
2019-06-20T05:24:39.599Z,14604.00
2019-06-20T05:25:39.708Z,14940.00
2019-06-20T05:26:39.572Z,15560.00
2019-06-20T05:27:39.573Z,16620.00
2019-06-20T05:28:39.555Z,17492.00
2019-06-20T05:29:39.554Z,18240.00
2019-06-20T05:30:39.526Z,17664.00
2019-06-20T05:31:39.536Z,16912.00
2019-06-20T05:32:39.515Z,16800.00
2019-06-20T05:33:39.493Z,16776.00
2019-06-20T05:34:39.490Z,16852.00
2019-06-20T05:35:39.505Z,16732.00
2019-06-20T05:36:39.475Z,16452.00
2019-06-20T05:37:39.485Z,16120.00
2019-06-20T05:38:39.446Z,15904.00
2019-06-20T05:39:39.437Z,15404.00
2019-06-20T05:40:39.427Z,14548.00
2019-06-20T05:41:39.413Z,13584.00
2019-06-20T05:42:39.412Z,12740.00
2019-06-20T05:43:39.393Z,12068.00
2019-06-20T05:44:39.384Z,11684.00
2019-06-20T05:45:39.363Z,11428.00
2019-06-20T05:46:39.391Z,11308.00
2019-06-20T05:47:39.359Z,11148.00
2019-06-20T05:48:39.334Z,10884.00
2019-06-20T05:49:39.325Z,10260.00
2019-06-20T05:50:39.318Z,9984.00
2019-06-20T05:51:39.907Z,10068.00
2019-06-20T05:52:39.313Z,10288.00
2019-06-20T05:53:39.280Z,10596.00
2019-06-20T05:54:39.834Z,10768.00
2019-06-20T05:55:39.297Z,10700.00
2019-06-20T05:56:39.255Z,10504.00
2019-06-20T05:57:40.084Z,10220.00
2019-06-20T05:58:39.245Z,9856.00
2019-06-20T05:59:39.239Z,9492.00
2019-06-20T06:00:39.215Z,9424.00
2019-06-20T06:01:39.200Z,9648.00
2019-06-20T06:02:40.264Z,10188.00
2019-06-20T06:03:39.192Z,10852.00
2019-06-20T06:04:39.168Z,11460.00
2019-06-20T06:05:39.158Z,11860.00
2019-06-20T06:06:39.140Z,11916.00
2019-06-20T06:07:39.139Z,11604.00
2019-06-20T06:08:39.166Z,11288.00
2019-06-20T06:09:39.113Z,10968.00
2019-06-20T06:10:39.096Z,11248.00
2019-06-20T06:11:39.101Z,13236.00
2019-06-20T06:12:39.094Z,11068.00
2019-06-20T06:13:39.067Z,8224.00
2019-06-20T06:14:39.081Z,6324.00
2019-06-20T06:15:39.045Z,4788.00
2019-06-20T06:16:39.034Z,4116.00
2019-06-20T06:17:39.041Z,3708.00
2019-06-20T06:18:39.017Z,3464.00
2019-06-20T06:19:39.040Z,3268.00
2019-06-20T06:20:38.992Z,3132.00
2019-06-20T06:21:38.987Z,3092.00
2019-06-20T06:22:38.967Z,3076.00
2019-06-20T06:23:38.959Z,3080.00
2019-06-20T06:24:38.977Z,3112.00
2019-06-20T06:25:38.947Z,3160.00
2019-06-20T06:26:38.928Z,3228.00
2019-06-20T06:27:38.920Z,3300.00
2019-06-20T06:28:38.906Z,3368.00
2019-06-20T06:29:38.903Z,3464.00
2019-06-20T06:30:38.906Z,3612.00
2019-06-20T06:31:38.878Z,3772.00
2019-06-20T06:32:40.447Z,4092.00
2019-06-20T06:33:38.851Z,4448.00
2019-06-20T06:34:38.847Z,4904.00
2019-06-20T06:35:38.846Z,5268.00
2019-06-20T06:36:38.827Z,5456.00
2019-06-20T06:37:38.833Z,6192.00
2019-06-20T06:38:38.806Z,6860.00
2019-06-20T06:39:38.792Z,7540.00
2019-06-20T06:40:38.781Z,8120.00
2019-06-20T06:41:38.790Z,8812.00
2019-06-20T06:42:38.763Z,9976.00
2019-06-20T06:43:42.015Z,11348.00
2019-06-20T06:44:38.737Z,12484.00
2019-06-20T06:45:38.731Z,13008.00
2019-06-20T06:46:44.896Z,13188.00
2019-06-20T06:47:39.737Z,12904.00
2019-06-20T06:48:38.697Z,12216.00
2019-06-20T06:49:38.680Z,11944.00
2019-06-20T06:50:38.668Z,12028.00
2019-06-20T06:51:38.655Z,12156.00
2019-06-20T06:52:38.656Z,12060.00
2019-06-20T06:53:38.638Z,11572.00
2019-06-20T06:54:38.630Z,11304.00
2019-06-20T06:55:38.636Z,11136.00
2019-06-20T06:56:38.625Z,11044.00
2019-06-20T06:57:38.657Z,11140.00
2019-06-20T06:58:38.584Z,11280.00
2019-06-20T06:59:38.579Z,11196.00
2019-06-20T07:00:38.561Z,11104.00
2019-06-20T07:01:38.561Z,11680.00
2019-06-20T07:02:39.191Z,13084.00
2019-06-20T07:03:38.556Z,14776.00
2019-06-20T07:04:38.523Z,16664.00
2019-06-20T07:05:38.514Z,18368.00
2019-06-20T07:06:38.507Z,19328.00
2019-06-20T07:07:38.490Z,19904.00
2019-06-20T07:08:38.503Z,19936.00
2019-06-20T07:09:38.466Z,19872.00
2019-06-20T07:10:38.463Z,20544.00
2019-06-20T07:11:38.517Z,20704.00
2019-06-20T07:12:38.498Z,21760.00
2019-06-20T07:13:38.450Z,25536.00
2019-06-20T07:14:41.776Z,20576.00
2019-06-20T07:15:38.403Z,19648.00
2019-06-20T07:16:38.395Z,18208.00
2019-06-20T07:17:38.377Z,15940.00
2019-06-20T07:18:38.399Z,14372.00
2019-06-20T07:19:38.587Z,13332.00
2019-06-20T07:20:38.342Z,13248.00
2019-06-20T07:21:38.331Z,13404.00
2019-06-20T07:22:38.325Z,13664.00
2019-06-20T07:23:38.342Z,13880.00
2019-06-20T07:24:38.306Z,14192.00
2019-06-20T07:25:38.296Z,14916.00
2019-06-20T07:26:38.280Z,15892.00
2019-06-20T07:27:38.281Z,16904.00
2019-06-20T07:28:38.267Z,17760.00
2019-06-20T07:29:38.273Z,17516.00
2019-06-20T07:30:38.246Z,16980.00
2019-06-20T07:31:38.224Z,16736.00
2019-06-20T07:32:38.215Z,16580.00
2019-06-20T07:33:38.204Z,12168.00
2019-06-20T07:34:38.219Z,10012.00
2019-06-20T07:35:41.718Z,8516.00
2019-06-20T07:36:38.177Z,7372.00
2019-06-20T07:37:38.167Z,6432.00
2019-06-20T07:38:38.158Z,5920.00
2019-06-20T07:39:38.150Z,5804.00
2019-06-20T07:40:38.161Z,5872.00
2019-06-20T07:41:38.119Z,5768.00
2019-06-20T07:42:38.109Z,5456.00
2019-06-20T07:43:38.100Z,5272.00
2019-06-20T07:44:38.088Z,5084.00
2019-06-20T07:45:38.118Z,4908.00
2019-06-20T07:46:38.680Z,4812.00
2019-06-20T07:47:38.068Z,4956.00
2019-06-20T07:48:38.045Z,5428.00
2019-06-20T07:49:38.033Z,6128.00
2019-06-20T07:50:39.448Z,6728.00
2019-06-20T07:51:38.076Z,7128.00
2019-06-20T07:52:38.010Z,7424.00
2019-06-20T07:53:37.991Z,8236.00
2019-06-20T07:54:37.983Z,9180.00
2019-06-20T07:55:37.968Z,10160.00
2019-06-20T07:56:37.975Z,10948.00
2019-06-20T07:57:38.058Z,11712.00
2019-06-20T07:58:37.979Z,12532.00
2019-06-20T07:59:37.960Z,12860.00
2019-06-20T08:00:37.923Z,12788.00
2019-06-20T08:01:37.927Z,12676.00
2019-06-20T08:02:37.894Z,12900.00
2019-06-20T08:03:37.890Z,13504.00
2019-06-20T08:04:37.884Z,14312.00
2019-06-20T08:05:37.866Z,13416.00
2019-06-20T08:06:37.852Z,12296.00
2019-06-20T08:07:37.852Z,11968.00
2019-06-20T08:08:37.837Z,11912.00
2019-06-20T08:09:44.864Z,12148.00
2019-06-20T08:10:38.815Z,12732.00
2019-06-20T08:11:37.800Z,13552.00
2019-06-20T08:12:37.803Z,14504.00
2019-06-20T08:13:37.785Z,15576.00
2019-06-20T08:14:37.765Z,16568.00
2019-06-20T08:15:37.762Z,18016.00
2019-06-20T08:16:37.747Z,19616.00
2019-06-20T08:17:37.742Z,22208.00
2019-06-20T08:18:37.739Z,32448.00
2019-06-20T08:19:37.719Z,46208.00
2019-06-20T08:20:37.709Z,41888.00
2019-06-20T08:21:37.692Z,64000.00
2019-06-20T08:22:37.684Z,77312.00
2019-06-20T08:23:37.701Z,100064.00
2019-06-20T08:24:37.715Z,43168.00
2019-06-20T08:25:37.682Z,91936.00
2019-06-20T08:26:37.779Z,25952.00
2019-06-20T08:27:37.632Z,21440.00
2019-06-20T08:28:37.657Z,18240.00
2019-06-20T08:29:37.613Z,16220.00
2019-06-20T08:30:37.597Z,16732.00
2019-06-20T08:31:37.586Z,19040.00
2019-06-20T08:32:37.584Z,22016.00
2019-06-20T08:33:37.584Z,25568.00
2019-06-20T08:34:37.575Z,29856.00
2019-06-20T08:35:37.546Z,35232.00
2019-06-20T08:36:37.530Z,41376.00
2019-06-20T08:37:37.523Z,102592.00
2019-06-20T08:38:37.755Z,109760.00
2019-06-20T08:39:37.517Z,120352.00
2019-06-20T08:40:37.487Z,111680.00
2019-06-20T08:41:37.485Z,44896.00
2019-06-20T08:42:37.501Z,73024.00
2019-06-20T08:43:37.464Z,117440.00
2019-06-20T08:44:37.465Z,112992.00
2019-06-20T08:45:37.444Z,40864.00
2019-06-20T08:46:37.448Z,42432.00
2019-06-20T08:47:37.427Z,64064.00
2019-06-20T08:48:37.427Z,109120.00
2019-06-20T08:49:37.406Z,54560.00
2019-06-20T08:50:37.415Z,32768.00
2019-06-20T08:51:37.391Z,31712.00
2019-06-20T08:52:37.377Z,37536.00
2019-06-20T08:53:37.372Z,41408.00
2019-06-20T08:54:37.373Z,45856.00
2019-06-20T08:55:37.340Z,38624.00
2019-06-20T08:56:37.329Z,61984.00
2019-06-20T08:57:37.332Z,90304.00
2019-06-20T08:58:37.321Z,106848.00
2019-06-20T08:59:37.323Z,34368.00
2019-06-20T09:00:37.333Z,40160.00
2019-06-20T09:01:37.288Z,46880.00
2019-06-20T09:02:37.274Z,30688.00
2019-06-20T09:03:37.262Z,32672.00
2019-06-20T09:04:37.275Z,35520.00
2019-06-20T09:05:37.241Z,27232.00
2019-06-20T09:06:37.242Z,44128.00
2019-06-20T09:07:37.219Z,23264.00
2019-06-20T09:08:37.221Z,19104.00
2019-06-20T09:09:37.205Z,16648.00
2019-06-20T09:10:37.234Z,16080.00
2019-06-20T09:11:37.178Z,13928.00
2019-06-20T09:12:37.165Z,12816.00
2019-06-20T09:13:37.152Z,11116.00
2019-06-20T09:14:37.159Z,10228.00
2019-06-20T09:15:37.139Z,10140.00
2019-06-20T09:16:37.135Z,10592.00
2019-06-20T09:17:37.112Z,11308.00
2019-06-20T09:18:37.101Z,12196.00
2019-06-20T09:19:37.127Z,13696.00
2019-06-20T09:20:37.081Z,15460.00
2019-06-20T09:21:37.077Z,17792.00
2019-06-20T09:22:37.073Z,19456.00
2019-06-20T09:23:37.056Z,21248.00
2019-06-20T09:24:37.043Z,21440.00
2019-06-20T09:25:37.059Z,21920.00
2019-06-20T09:26:37.025Z,24864.00
2019-06-20T09:27:37.051Z,25920.00
2019-06-20T09:28:37.013Z,25344.00
2019-06-20T09:29:41.768Z,20992.00
2019-06-20T09:30:37.999Z,17152.00
2019-06-20T09:31:36.973Z,16108.00
2019-06-20T09:32:36.961Z,15844.00
2019-06-20T09:33:36.963Z,16212.00
2019-06-20T09:34:36.941Z,16488.00
2019-06-20T09:35:36.949Z,16776.00
2019-06-20T09:36:36.921Z,17728.00
2019-06-20T09:37:36.907Z,19488.00
2019-06-20T09:38:36.918Z,22624.00
2019-06-20T09:39:36.888Z,25728.00
2019-06-20T09:40:36.898Z,25056.00
2019-06-20T09:41:36.874Z,23872.00
2019-06-20T09:42:37.011Z,24928.00
2019-06-20T09:43:36.847Z,25728.00
2019-06-20T09:44:36.844Z,23552.00
2019-06-20T09:45:36.846Z,22880.00
2019-06-20T09:46:36.811Z,22784.00
2019-06-20T09:47:36.801Z,23904.00
2019-06-20T09:48:36.789Z,24064.00
2019-06-20T09:49:36.783Z,25312.00
2019-06-20T09:50:36.770Z,30944.00
2019-06-20T09:51:36.785Z,37056.00
2019-06-20T09:52:36.750Z,85792.00
2019-06-20T09:53:36.734Z,35776.00
2019-06-20T09:54:36.729Z,39904.00
2019-06-20T09:55:36.721Z,44000.00
2019-06-20T09:56:36.706Z,53440.00
2019-06-20T09:57:36.707Z,44096.00
2019-06-20T09:58:36.685Z,43808.00
2019-06-20T09:59:36.672Z,36608.00
2019-06-20T10:00:36.668Z,144576.00
2019-06-20T10:01:36.657Z,42048.00
2019-06-20T10:02:36.655Z,41984.00
2019-06-20T10:03:36.638Z,42976.00
2019-06-20T10:04:36.844Z,45440.00
2019-06-20T10:05:36.613Z,98240.00
2019-06-20T10:06:36.605Z,66784.00
2019-06-20T10:07:36.615Z,148192.00
2019-06-20T10:08:36.601Z,79616.00
2019-06-20T10:09:36.571Z,64992.00
2019-06-20T10:10:36.554Z,63616.00
2019-06-20T10:11:36.546Z,48576.00
2019-06-20T10:12:36.573Z,48736.00
2019-06-20T10:13:36.562Z,53824.00
2019-06-20T10:14:36.522Z,46912.00
2019-06-20T10:15:36.504Z,53376.00
2019-06-20T10:16:45.327Z,103040.00
2019-06-20T10:17:37.495Z,64288.00
2019-06-20T10:18:36.486Z,50208.00
2019-06-20T10:19:36.485Z,56832.00
2019-06-20T10:20:38.857Z,99136.00
2019-06-20T10:21:36.453Z,120256.00
2019-06-20T10:22:36.445Z,119616.00
2019-06-20T10:23:36.448Z,148768.00
2019-06-20T10:24:36.427Z,141792.00
2019-06-20T10:25:36.428Z,135808.00
2019-06-20T10:26:37.723Z,136384.00
2019-06-20T10:27:36.399Z,130656.00
2019-06-20T10:28:36.395Z,128608.00
2019-06-20T10:29:36.378Z,133952.00
2019-06-20T10:30:36.379Z,141856.00
2019-06-20T10:31:36.369Z,143616.00
2019-06-20T10:32:36.355Z,138688.00
2019-06-20T10:33:36.383Z,140672.00
2019-06-20T10:34:36.349Z,27808.00
2019-06-20T10:35:36.324Z,147072.00
2019-06-20T10:36:36.351Z,41344.00
2019-06-20T10:37:36.305Z,117344.00
2019-06-20T10:38:37.241Z,42784.00
2019-06-20T10:39:36.289Z,44736.00
2019-06-20T10:40:36.278Z,45408.00
2019-06-20T10:41:36.271Z,54080.00
2019-06-20T10:42:36.268Z,112416.00
2019-06-20T10:43:36.243Z,36288.00
2019-06-20T10:44:36.238Z,34048.00
2019-06-20T10:45:36.249Z,35904.00
2019-06-20T10:46:36.220Z,86848.00
2019-06-20T10:47:36.273Z,35840.00
2019-06-20T10:48:36.201Z,31200.00
2019-06-20T10:49:36.194Z,33184.00
2019-06-20T10:50:36.183Z,34560.00
2019-06-20T10:51:36.175Z,37440.00
2019-06-20T10:52:36.183Z,59232.00
2019-06-20T10:53:36.148Z,47328.00
2019-06-20T10:54:36.136Z,37760.00
2019-06-20T10:55:36.127Z,36064.00
2019-06-20T10:56:36.122Z,35360.00
2019-06-20T10:57:36.141Z,35872.00
2019-06-20T10:58:36.179Z,36480.00
2019-06-20T10:59:36.096Z,38368.00
2019-06-20T11:00:36.078Z,40832.00
2019-06-20T11:01:36.073Z,42752.00
2019-06-20T11:02:36.065Z,53696.00
2019-06-20T11:03:36.067Z,70080.00
2019-06-20T11:04:36.039Z,98976.00
2019-06-20T11:05:36.030Z,81376.00
2019-06-20T11:06:36.019Z,151200.00
2019-06-20T11:07:36.026Z,122560.00
2019-06-20T11:08:36.030Z,128384.00
2019-06-20T11:09:36.007Z,133536.00
2019-06-20T11:10:35.985Z,138592.00
2019-06-20T11:11:35.978Z,119712.00
2019-06-20T11:12:45.631Z,121216.00
2019-06-20T11:13:38.954Z,142112.00
2019-06-20T11:14:35.945Z,125088.00
2019-06-20T11:15:35.939Z,66272.00
2019-06-20T11:16:36.038Z,123488.00
2019-06-20T11:17:35.920Z,102944.00
2019-06-20T11:18:37.359Z,133088.00
2019-06-20T11:19:38.146Z,131648.00
2019-06-20T11:20:35.890Z,122432.00
2019-06-20T11:21:37.895Z,121984.00
2019-06-20T11:22:37.858Z,122624.00
2019-06-20T11:23:36.485Z,113760.00
2019-06-20T11:24:37.492Z,104736.00
2019-06-20T11:25:36.988Z,95072.00
2019-06-20T11:26:37.798Z,112160.00
2019-06-20T11:27:37.118Z,133792.00
2019-06-20T11:28:37.637Z,130208.00
2019-06-20T11:29:36.854Z,130912.00
2019-06-20T11:30:46.711Z,135680.00
2019-06-20T11:31:37.639Z,135360.00
2019-06-20T11:32:36.607Z,140160.00
2019-06-20T11:33:38.239Z,136320.00
2019-06-20T11:34:37.701Z,140128.00
2019-06-20T11:35:37.429Z,147168.00
2019-06-20T11:36:37.108Z,143296.00
2019-06-20T11:37:36.463Z,135936.00
2019-06-20T11:38:35.740Z,126432.00
2019-06-20T11:39:37.312Z,116032.00
2019-06-20T11:40:36.921Z,95200.00
2019-06-20T11:41:36.747Z,91744.00
2019-06-20T11:42:36.114Z,96512.00
2019-06-20T11:43:36.277Z,100640.00
2019-06-20T11:44:37.011Z,110656.00
2019-06-20T11:45:37.213Z,102400.00
2019-06-20T11:46:36.981Z,107648.00
2019-06-20T11:47:36.635Z,111424.00
2019-06-20T11:48:36.761Z,118304.00
2019-06-20T11:49:36.424Z,87040.00
2019-06-20T11:50:36.283Z,66080.00
2019-06-20T11:51:35.953Z,72864.00
2019-06-20T11:52:40.256Z,89952.00
2019-06-20T11:53:36.673Z,109312.00
2019-06-20T11:54:36.016Z,36288.00
2019-06-20T11:55:35.620Z,32928.00
2019-06-20T11:56:35.586Z,68096.00
2019-06-20T11:57:35.598Z,67232.00
2019-06-20T11:58:35.567Z,57504.00
2019-06-20T11:59:35.569Z,44288.00
2019-06-20T12:00:35.549Z,44512.00
2019-06-20T12:01:35.569Z,73696.00
2019-06-20T12:02:35.557Z,58880.00
2019-06-20T12:03:35.534Z,82720.00
2019-06-20T12:04:35.531Z,63616.00
2019-06-20T12:05:35.531Z,60128.00
2019-06-20T12:06:35.538Z,53408.00